sensor_id;sensor_type;location;lat;lon;timestamp;pressure;altitude;pressure_sealevel;temperature;humidity
43804;BME280;29430;52.924;-2.388;2023-10-08T00:02:30;99968.13;;;15.13;76.39
43804;BME280;29430;52.924;-2.388;2023-10-08T00:07:22;99965.63;;;15.12;77.13
43804;BME280;29430;52.924;-2.388;2023-10-08T00:12:15;99966.72;;;15.11;76.50
43804;BME280;29430;52.924;-2.388;2023-10-08T00:17:08;99960.41;;;15.10;76.52
43804;BME280;29430;52.924;-2.388;2023-10-08T00:22:02;99960.66;;;15.09;75.82
43804;BME280;29430;52.924;-2.388;2023-10-08T00:26:57;99951.03;;;15.06;75.81
43804;BME280;29430;52.924;-2.388;2023-10-08T00:31:49;99954.59;;;15.07;76.64
43804;BME280;29430;52.924;-2.388;2023-10-08T00:36:44;99953.53;;;15.08;76.90
43804;BME280;29430;52.924;-2.388;2023-10-08T00:41:37;99959.50;;;15.04;77.67
43804;BME280;29430;52.924;-2.388;2023-10-08T00:46:30;99970.16;;;15.06;77.25
43804;BME280;29430;52.924;-2.388;2023-10-08T00:51:27;99981.91;;;15.07;77.91
43804;BME280;29430;52.924;-2.388;2023-10-08T00:56:28;99980.50;;;15.04;78.48
43804;BME280;29430;52.924;-2.388;2023-10-08T01:01:37;99979.91;;;15.02;79.04
43804;BME280;29430;52.924;-2.388;2023-10-08T01:06:31;99992.75;;;15.01;79.62
43804;BME280;29430;52.924;-2.388;2023-10-08T01:11:23;99989.66;;;14.98;79.24
43804;BME280;29430;52.924;-2.388;2023-10-08T01:16:38;99976.94;;;14.92;79.80
43804;BME280;29430;52.924;-2.388;2023-10-08T01:21:33;99982.66;;;14.90;80.08
43804;BME280;29430;52.924;-2.388;2023-10-08T01:26:34;99988.34;;;14.89;80.35
43804;BME280;29430;52.924;-2.388;2023-10-08T01:31:30;99980.63;;;14.85;80.87
43804;BME280;29430;52.924;-2.388;2023-10-08T01:36:26;99978.75;;;14.86;81.24
43804;BME280;29430;52.924;-2.388;2023-10-08T01:41:18;99992.88;;;14.83;81.88
43804;BME280;29430;52.924;-2.388;2023-10-08T01:46:11;100000.00;;;14.84;82.11
43804;BME280;29430;52.924;-2.388;2023-10-08T01:51:03;99995.63;;;14.83;82.48
43804;BME280;29430;52.924;-2.388;2023-10-08T01:56:00;100000.22;;;14.82;82.99
43804;BME280;29430;52.924;-2.388;2023-10-08T02:00:54;100006.16;;;14.79;83.01
43804;BME280;29430;52.924;-2.388;2023-10-08T02:05:50;99986.59;;;14.71;83.52
43804;BME280;29430;52.924;-2.388;2023-10-08T02:10:45;99987.44;;;14.71;83.73
43804;BME280;29430;52.924;-2.388;2023-10-08T02:15:48;99983.75;;;14.65;83.34
43804;BME280;29430;52.924;-2.388;2023-10-08T02:20:41;99998.09;;;14.61;83.57
43804;BME280;29430;52.924;-2.388;2023-10-08T02:25:33;99993.69;;;14.60;84.07
43804;BME280;29430;52.924;-2.388;2023-10-08T02:30:29;99990.75;;;14.61;84.04
43804;BME280;29430;52.924;-2.388;2023-10-08T02:35:20;99987.63;;;14.58;83.20
43804;BME280;29430;52.924;-2.388;2023-10-08T02:40:14;99990.59;;;14.56;83.21
43804;BME280;29430;52.924;-2.388;2023-10-08T02:45:17;99997.16;;;14.55;83.69
43804;BME280;29430;52.924;-2.388;2023-10-08T02:50:09;99999.03;;;14.55;84.32
43804;BME280;29430;52.924;-2.388;2023-10-08T02:55:08;99997.84;;;14.50;84.50
43804;BME280;29430;52.924;-2.388;2023-10-08T03:00:12;100008.41;;;14.47;85.51
43804;BME280;29430;52.924;-2.388;2023-10-08T03:05:05;99999.28;;;14.41;86.32
43804;BME280;29430;52.924;-2.388;2023-10-08T03:10:00;100005.44;;;14.37;86.59
43804;BME280;29430;52.924;-2.388;2023-10-08T03:14:59;99995.47;;;14.30;87.76
43804;BME280;29430;52.924;-2.388;2023-10-08T03:20:15;100002.56;;;14.20;88.89
43804;BME280;29430;52.924;-2.388;2023-10-08T03:25:25;99998.88;;;14.14;89.69
43804;BME280;29430;52.924;-2.388;2023-10-08T03:30:18;99992.69;;;14.07;90.16
43804;BME280;29430;52.924;-2.388;2023-10-08T03:35:10;99996.97;;;14.03;89.60
43804;BME280;29430;52.924;-2.388;2023-10-08T03:40:05;99991.75;;;14.01;89.78
43804;BME280;29430;52.924;-2.388;2023-10-08T03:45:15;99989.25;;;14.00;90.60
43804;BME280;29430;52.924;-2.388;2023-10-08T03:50:14;99977.00;;;13.90;91.16
43804;BME280;29430;52.924;-2.388;2023-10-08T03:55:09;99978.53;;;13.86;91.44
43804;BME280;29430;52.924;-2.388;2023-10-08T04:00:11;99987.19;;;13.83;91.10
43804;BME280;29430;52.924;-2.388;2023-10-08T04:05:23;99977.94;;;13.84;92.13
43804;BME280;29430;52.924;-2.388;2023-10-08T04:10:23;99982.19;;;13.80;91.98
43804;BME280;29430;52.924;-2.388;2023-10-08T04:15:40;99981.84;;;13.76;92.11
43804;BME280;29430;52.924;-2.388;2023-10-08T04:20:32;99978.50;;;13.74;92.65
43804;BME280;29430;52.924;-2.388;2023-10-08T04:25:29;99971.84;;;13.70;91.51
43804;BME280;29430;52.924;-2.388;2023-10-08T04:30:20;99987.34;;;13.70;91.13
43804;BME280;29430;52.924;-2.388;2023-10-08T04:35:13;99988.69;;;13.67;88.83
43804;BME280;29430;52.924;-2.388;2023-10-08T04:40:07;99985.72;;;13.69;88.13
43804;BME280;29430;52.924;-2.388;2023-10-08T04:45:07;99991.53;;;13.72;87.79
43804;BME280;29430;52.924;-2.388;2023-10-08T04:50:04;99997.22;;;13.71;87.44
43804;BME280;29430;52.924;-2.388;2023-10-08T04:54:56;99998.25;;;13.70;86.92
43804;BME280;29430;52.924;-2.388;2023-10-08T04:59:49;100000.63;;;13.66;87.22
43804;BME280;29430;52.924;-2.388;2023-10-08T05:04:42;99994.81;;;13.63;87.49
43804;BME280;29430;52.924;-2.388;2023-10-08T05:09:57;99990.41;;;13.61;88.42
43804;BME280;29430;52.924;-2.388;2023-10-08T05:14:54;99985.78;;;13.62;88.29
43804;BME280;29430;52.924;-2.388;2023-10-08T05:20:05;99977.38;;;13.64;88.60
43804;BME280;29430;52.924;-2.388;2023-10-08T05:24:59;99989.97;;;13.65;88.79
43804;BME280;29430;52.924;-2.388;2023-10-08T05:30:19;99989.97;;;13.65;88.73
43804;BME280;29430;52.924;-2.388;2023-10-08T05:35:20;99985.19;;;13.60;89.07
43804;BME280;29430;52.924;-2.388;2023-10-08T05:40:30;99987.56;;;13.56;89.07
43804;BME280;29430;52.924;-2.388;2023-10-08T05:45:41;100001.25;;;13.50;89.04
43804;BME280;29430;52.924;-2.388;2023-10-08T05:50:44;100001.72;;;13.47;89.26
43804;BME280;29430;52.924;-2.388;2023-10-08T05:55:47;100001.13;;;13.45;89.43
43804;BME280;29430;52.924;-2.388;2023-10-08T06:00:41;100000.91;;;13.46;90.17
43804;BME280;29430;52.924;-2.388;2023-10-08T06:06:02;100010.75;;;13.47;91.24
43804;BME280;29430;52.924;-2.388;2023-10-08T06:11:02;100006.94;;;13.48;95.06
43804;BME280;29430;52.924;-2.388;2023-10-08T06:16:08;99995.81;;;13.50;98.50
43804;BME280;29430;52.924;-2.388;2023-10-08T06:21:02;99998.06;;;13.53;100.00
43804;BME280;29430;52.924;-2.388;2023-10-08T06:26:01;99999.53;;;13.55;100.00
43804;BME280;29430;52.924;-2.388;2023-10-08T06:31:02;99990.88;;;13.58;100.00
43804;BME280;29430;52.924;-2.388;2023-10-08T06:36:06;100009.28;;;13.63;100.00
43804;BME280;29430;52.924;-2.388;2023-10-08T06:41:06;100006.31;;;13.65;100.00
43804;BME280;29430;52.924;-2.388;2023-10-08T06:46:03;100007.13;;;13.65;100.00
43804;BME280;29430;52.924;-2.388;2023-10-08T06:50:58;99998.72;;;13.67;100.00
43804;BME280;29430;52.924;-2.388;2023-10-08T06:55:59;100007.53;;;13.69;100.00
43804;BME280;29430;52.924;-2.388;2023-10-08T07:00:55;100008.34;;;13.69;100.00
43804;BME280;29430;52.924;-2.388;2023-10-08T07:05:49;100017.97;;;13.72;100.00
43804;BME280;29430;52.924;-2.388;2023-10-08T07:10:52;100002.31;;;13.79;100.00
43804;BME280;29430;52.924;-2.388;2023-10-08T07:15:44;100006.25;;;13.83;100.00
43804;BME280;29430;52.924;-2.388;2023-10-08T07:20:37;100011.59;;;13.90;100.00
43804;BME280;29430;52.924;-2.388;2023-10-08T07:25:31;99991.69;;;13.89;100.00
43804;BME280;29430;52.924;-2.388;2023-10-08T07:30:28;99993.84;;;13.99;100.00
43804;BME280;29430;52.924;-2.388;2023-10-08T07:35:24;99983.31;;;14.03;100.00
43804;BME280;29430;52.924;-2.388;2023-10-08T07:40:17;100000.41;;;14.10;100.00
43804;BME280;29430;52.924;-2.388;2023-10-08T07:45:11;100006.47;;;14.12;100.00
43804;BME280;29430;52.924;-2.388;2023-10-08T07:50:09;100003.38;;;14.20;100.00
43804;BME280;29430;52.924;-2.388;2023-10-08T07:55:04;100003.28;;;14.27;100.00
43804;BME280;29430;52.924;-2.388;2023-10-08T07:59:59;99993.31;;;14.32;100.00
43804;BME280;29430;52.924;-2.388;2023-10-08T08:05:09;100006.84;;;14.39;100.00
43804;BME280;29430;52.924;-2.388;2023-10-08T08:10:01;100004.97;;;14.40;100.00
43804;BME280;29430;52.924;-2.388;2023-10-08T08:14:55;100005.56;;;14.42;100.00
43804;BME280;29430;52.924;-2.388;2023-10-08T08:19:49;100005.09;;;14.45;100.00
43804;BME280;29430;52.924;-2.388;2023-10-08T08:24:41;100009.25;;;14.47;98.48
43804;BME280;29430;52.924;-2.388;2023-10-08T08:29:37;100009.59;;;14.51;98.18
43804;BME280;29430;52.924;-2.388;2023-10-08T08:34:39;100010.94;;;14.60;97.14
43804;BME280;29430;52.924;-2.388;2023-10-08T08:39:35;100020.53;;;14.75;98.20
43804;BME280;29430;52.924;-2.388;2023-10-08T08:44:28;100026.72;;;14.94;98.05
43804;BME280;29430;52.924;-2.388;2023-10-08T08:49:22;100030.72;;;15.15;99.08
43804;BME280;29430;52.924;-2.388;2023-10-08T08:54:14;100050.06;;;15.37;98.58
43804;BME280;29430;52.924;-2.388;2023-10-08T08:59:07;100052.63;;;15.55;97.64
43804;BME280;29430;52.924;-2.388;2023-10-08T09:04:05;100048.25;;;15.83;96.79
43804;BME280;29430;52.924;-2.388;2023-10-08T09:09:02;100037.31;;;16.46;95.77
43804;BME280;29430;52.924;-2.388;2023-10-08T09:14:15;100039.38;;;17.51;90.15
43804;BME280;29430;52.924;-2.388;2023-10-08T09:19:06;100023.94;;;18.54;84.39
43804;BME280;29430;52.924;-2.388;2023-10-08T09:24:03;100034.91;;;19.39;79.33
43804;BME280;29430;52.924;-2.388;2023-10-08T09:29:00;100039.28;;;20.14;74.89
43804;BME280;29430;52.924;-2.388;2023-10-08T09:33:54;100035.19;;;20.78;72.39
43804;BME280;29430;52.924;-2.388;2023-10-08T09:38:47;100031.44;;;21.34;69.61
43804;BME280;29430;52.924;-2.388;2023-10-08T09:43:41;100043.34;;;21.90;65.80
43804;BME280;29430;52.924;-2.388;2023-10-08T09:48:37;100027.22;;;22.47;62.44
43804;BME280;29430;52.924;-2.388;2023-10-08T09:53:36;100037.56;;;22.65;58.43
43804;BME280;29430;52.924;-2.388;2023-10-08T09:58:32;100039.53;;;22.89;60.35
43804;BME280;29430;52.924;-2.388;2023-10-08T10:03:25;100050.06;;;23.16;59.62
43804;BME280;29430;52.924;-2.388;2023-10-08T10:08:19;100074.16;;;23.16;58.25
43804;BME280;29430;52.924;-2.388;2023-10-08T10:13:17;100075.19;;;22.91;59.99
43804;BME280;29430;52.924;-2.388;2023-10-08T10:18:16;100035.28;;;22.73;60.73
43804;BME280;29430;52.924;-2.388;2023-10-08T10:23:41;100032.38;;;22.59;59.29
43804;BME280;29430;52.924;-2.388;2023-10-08T10:28:36;100021.09;;;22.50;59.72
43804;BME280;29430;52.924;-2.388;2023-10-08T10:33:30;100010.91;;;22.45;59.14
43804;BME280;29430;52.924;-2.388;2023-10-08T10:38:23;100011.72;;;22.46;59.09
43804;BME280;29430;52.924;-2.388;2023-10-08T10:43:18;100027.78;;;22.44;59.18
43804;BME280;29430;52.924;-2.388;2023-10-08T10:48:11;100037.03;;;22.63;58.08
43804;BME280;29430;52.924;-2.388;2023-10-08T10:53:12;100029.03;;;22.86;58.13
43804;BME280;29430;52.924;-2.388;2023-10-08T10:58:04;100028.59;;;23.03;56.58
43804;BME280;29430;52.924;-2.388;2023-10-08T11:03:04;100035.81;;;23.28;58.02
43804;BME280;29430;52.924;-2.388;2023-10-08T11:08:07;100034.78;;;23.67;57.31
43804;BME280;29430;52.924;-2.388;2023-10-08T11:13:01;100028.97;;;24.07;56.50
43804;BME280;29430;52.924;-2.388;2023-10-08T11:17:52;100021.44;;;24.26;54.40
43804;BME280;29430;52.924;-2.388;2023-10-08T11:22:47;100018.38;;;24.47;53.85
43804;BME280;29430;52.924;-2.388;2023-10-08T11:27:39;100025.75;;;24.71;55.59
43804;BME280;29430;52.924;-2.388;2023-10-08T11:32:30;100019.19;;;24.94;55.59
43804;BME280;29430;52.924;-2.388;2023-10-08T11:37:31;100010.16;;;25.02;55.11
43804;BME280;29430;52.924;-2.388;2023-10-08T11:42:26;100004.00;;;24.92;53.82
43804;BME280;29430;52.924;-2.388;2023-10-08T11:47:24;100012.19;;;24.83;55.12
43804;BME280;29430;52.924;-2.388;2023-10-08T11:52:16;100000.47;;;24.86;55.51
43804;BME280;29430;52.924;-2.388;2023-10-08T11:57:13;99988.47;;;24.91;55.51
43804;BME280;29430;52.924;-2.388;2023-10-08T12:02:08;99983.84;;;24.86;55.44
43804;BME280;29430;52.924;-2.388;2023-10-08T12:07:00;99978.78;;;24.88;55.37
43804;BME280;29430;52.924;-2.388;2023-10-08T12:11:58;99983.63;;;24.82;55.15
43804;BME280;29430;52.924;-2.388;2023-10-08T12:16:50;99993.06;;;24.81;55.68
43804;BME280;29430;52.924;-2.388;2023-10-08T12:21:44;99999.25;;;24.92;55.40
43804;BME280;29430;52.924;-2.388;2023-10-08T12:26:39;99986.13;;;24.98;51.85
43804;BME280;29430;52.924;-2.388;2023-10-08T12:31:39;99978.41;;;24.95;50.81
43804;BME280;29430;52.924;-2.388;2023-10-08T12:36:33;99966.06;;;24.73;52.36
43804;BME280;29430;52.924;-2.388;2023-10-08T12:41:29;99956.38;;;24.71;53.09
43804;BME280;29430;52.924;-2.388;2023-10-08T12:46:23;99978.09;;;24.49;52.89
43804;BME280;29430;52.924;-2.388;2023-10-08T12:51:19;99966.97;;;24.36;55.03
43804;BME280;29430;52.924;-2.388;2023-10-08T12:56:15;99950.88;;;24.38;53.20
43804;BME280;29430;52.924;-2.388;2023-10-08T13:01:07;99956.69;;;24.22;54.41
43804;BME280;29430;52.924;-2.388;2023-10-08T13:06:01;99946.88;;;24.11;53.50
43804;BME280;29430;52.924;-2.388;2023-10-08T13:10:57;99941.63;;;24.09;54.29
43804;BME280;29430;52.924;-2.388;2023-10-08T13:15:52;99934.63;;;23.98;53.39
43804;BME280;29430;52.924;-2.388;2023-10-08T13:20:47;99941.50;;;23.82;52.84
43804;BME280;29430;52.924;-2.388;2023-10-08T13:25:39;99942.38;;;23.77;53.41
43804;BME280;29430;52.924;-2.388;2023-10-08T13:30:31;99952.28;;;23.64;51.85
43804;BME280;29430;52.924;-2.388;2023-10-08T13:35:24;99950.78;;;23.53;52.21
43804;BME280;29430;52.924;-2.388;2023-10-08T13:40:16;99936.19;;;23.47;53.40
43804;BME280;29430;52.924;-2.388;2023-10-08T13:45:09;99917.72;;;23.42;52.64
43804;BME280;29430;52.924;-2.388;2023-10-08T13:50:01;99923.63;;;23.36;54.64
43804;BME280;29430;52.924;-2.388;2023-10-08T13:55:02;99930.34;;;23.30;52.35
43804;BME280;29430;52.924;-2.388;2023-10-08T13:59:59;99934.59;;;23.22;53.79
43804;BME280;29430;52.924;-2.388;2023-10-08T14:04:52;99916.19;;;23.12;54.68
43804;BME280;29430;52.924;-2.388;2023-10-08T14:09:45;99922.84;;;23.11;54.49
43804;BME280;29430;52.924;-2.388;2023-10-08T14:14:41;99918.91;;;23.17;53.78
43804;BME280;29430;52.924;-2.388;2023-10-08T14:19:38;99914.16;;;23.18;51.19
43804;BME280;29430;52.924;-2.388;2023-10-08T14:24:45;99910.63;;;23.12;51.91
43804;BME280;29430;52.924;-2.388;2023-10-08T14:29:50;99896.03;;;23.06;51.98
43804;BME280;29430;52.924;-2.388;2023-10-08T14:34:44;99903.28;;;23.02;54.08
43804;BME280;29430;52.924;-2.388;2023-10-08T14:39:39;99891.91;;;23.04;53.14
43804;BME280;29430;52.924;-2.388;2023-10-08T14:44:50;99885.88;;;23.02;52.03
43804;BME280;29430;52.924;-2.388;2023-10-08T14:49:42;99898.50;;;23.08;53.86
43804;BME280;29430;52.924;-2.388;2023-10-08T14:54:37;99886.09;;;23.05;51.27
43804;BME280;29430;52.924;-2.388;2023-10-08T14:59:29;99859.09;;;22.97;50.34
43804;BME280;29430;52.924;-2.388;2023-10-08T15:04:22;99828.91;;;22.77;52.62
43804;BME280;29430;52.924;-2.388;2023-10-08T15:09:14;99816.66;;;22.64;52.52
43804;BME280;29430;52.924;-2.388;2023-10-08T15:14:12;99810.41;;;22.53;53.06
43804;BME280;29430;52.924;-2.388;2023-10-08T15:19:06;99799.47;;;22.43;54.19
43804;BME280;29430;52.924;-2.388;2023-10-08T15:24:04;99803.41;;;22.37;54.88
43804;BME280;29430;52.924;-2.388;2023-10-08T15:29:02;99797.41;;;22.29;55.68
43804;BME280;29430;52.924;-2.388;2023-10-08T15:33:54;99811.22;;;22.29;56.44
43804;BME280;29430;52.924;-2.388;2023-10-08T15:38:46;99816.19;;;22.27;56.61
43804;BME280;29430;52.924;-2.388;2023-10-08T15:43:37;99799.69;;;22.22;57.13
43804;BME280;29430;52.924;-2.388;2023-10-08T15:48:29;99797.00;;;22.17;56.86
43804;BME280;29430;52.924;-2.388;2023-10-08T15:53:21;99800.66;;;22.07;56.00
43804;BME280;29430;52.924;-2.388;2023-10-08T15:58:13;99787.28;;;21.95;56.52
43804;BME280;29430;52.924;-2.388;2023-10-08T16:03:04;99790.13;;;21.85;55.68
43804;BME280;29430;52.924;-2.388;2023-10-08T16:08:00;99773.91;;;21.78;56.22
43804;BME280;29430;52.924;-2.388;2023-10-08T16:12:52;99787.75;;;21.73;54.78
43804;BME280;29430;52.924;-2.388;2023-10-08T16:17:44;99781.75;;;21.66;55.45
43804;BME280;29430;52.924;-2.388;2023-10-08T16:22:36;99790.63;;;21.63;55.51
43804;BME280;29430;52.924;-2.388;2023-10-08T16:27:27;99790.66;;;21.58;55.96
43804;BME280;29430;52.924;-2.388;2023-10-08T16:32:19;99796.50;;;21.51;55.12
43804;BME280;29430;52.924;-2.388;2023-10-08T16:37:11;99803.44;;;21.43;54.48
43804;BME280;29430;52.924;-2.388;2023-10-08T16:42:06;99799.94;;;21.33;54.68
43804;BME280;29430;52.924;-2.388;2023-10-08T16:46:58;99806.38;;;21.23;53.86
43804;BME280;29430;52.924;-2.388;2023-10-08T16:51:49;99786.59;;;21.10;51.52
43804;BME280;29430;52.924;-2.388;2023-10-08T16:56:42;99790.25;;;21.01;53.06
43804;BME280;29430;52.924;-2.388;2023-10-08T17:01:35;99786.44;;;20.86;51.84
43804;BME280;29430;52.924;-2.388;2023-10-08T17:06:27;99798.38;;;20.77;52.71
43804;BME280;29430;52.924;-2.388;2023-10-08T17:11:21;99806.69;;;20.66;52.08
43804;BME280;29430;52.924;-2.388;2023-10-08T17:16:13;99807.81;;;20.55;53.34
43804;BME280;29430;52.924;-2.388;2023-10-08T17:21:04;99817.19;;;20.49;52.54
43804;BME280;29430;52.924;-2.388;2023-10-08T17:25:58;99815.84;;;20.41;53.40
43804;BME280;29430;52.924;-2.388;2023-10-08T17:30:50;99811.75;;;20.33;54.02
43804;BME280;29430;52.924;-2.388;2023-10-08T17:40:34;99826.13;;;20.15;54.67
43804;BME280;29430;52.924;-2.388;2023-10-08T17:45:26;99816.78;;;20.00;55.98
43804;BME280;29430;52.924;-2.388;2023-10-08T17:50:26;99828.34;;;19.92;56.08
43804;BME280;29430;52.924;-2.388;2023-10-08T17:55:18;99838.28;;;19.88;57.00
43804;BME280;29430;52.924;-2.388;2023-10-08T18:00:13;99834.97;;;19.86;56.97
43804;BME280;29430;52.924;-2.388;2023-10-08T18:05:09;99838.53;;;19.81;57.12
43804;BME280;29430;52.924;-2.388;2023-10-08T18:10:07;99837.72;;;19.76;57.95
43804;BME280;29430;52.924;-2.388;2023-10-08T18:14:59;99826.41;;;19.72;57.62
43804;BME280;29430;52.924;-2.388;2023-10-08T18:19:52;99830.84;;;19.68;58.20
43804;BME280;29430;52.924;-2.388;2023-10-08T18:24:43;99833.28;;;19.64;58.52
43804;BME280;29430;52.924;-2.388;2023-10-08T18:29:35;99830.56;;;19.59;59.02
43804;BME280;29430;52.924;-2.388;2023-10-08T18:34:26;99838.53;;;19.56;60.53
43804;BME280;29430;52.924;-2.388;2023-10-08T18:39:20;99831.38;;;19.49;60.72
43804;BME280;29430;52.924;-2.388;2023-10-08T18:44:15;99832.75;;;19.47;60.96
43804;BME280;29430;52.924;-2.388;2023-10-08T18:49:07;99839.88;;;19.43;61.30
43804;BME280;29430;52.924;-2.388;2023-10-08T18:53:59;99849.53;;;19.40;62.59
43804;BME280;29430;52.924;-2.388;2023-10-08T18:58:51;99852.53;;;19.33;62.73
43804;BME280;29430;52.924;-2.388;2023-10-08T19:03:43;99855.56;;;19.27;62.53
43804;BME280;29430;52.924;-2.388;2023-10-08T19:08:37;99836.81;;;19.13;63.81
43804;BME280;29430;52.924;-2.388;2023-10-08T19:13:29;99829.91;;;19.06;64.15
43804;BME280;29430;52.924;-2.388;2023-10-08T19:18:21;99843.66;;;19.01;65.46
43804;BME280;29430;52.924;-2.388;2023-10-08T19:23:15;99855.19;;;18.92;66.15
43804;BME280;29430;52.924;-2.388;2023-10-08T19:28:07;99848.31;;;18.90;66.80
43804;BME280;29430;52.924;-2.388;2023-10-08T19:32:59;99831.47;;;18.81;67.68
43804;BME280;29430;52.924;-2.388;2023-10-08T19:37:54;99841.31;;;18.72;68.43
43804;BME280;29430;52.924;-2.388;2023-10-08T19:42:45;99838.81;;;18.60;69.36
43804;BME280;29430;52.924;-2.388;2023-10-08T19:47:37;99844.00;;;18.51;70.42
43804;BME280;29430;52.924;-2.388;2023-10-08T19:52:29;99871.13;;;18.42;70.30
43804;BME280;29430;52.924;-2.388;2023-10-08T19:57:21;99861.47;;;18.30;71.30
43804;BME280;29430;52.924;-2.388;2023-10-08T20:02:13;99859.22;;;18.21;72.01
43804;BME280;29430;52.924;-2.388;2023-10-08T20:07:05;99862.19;;;18.15;73.07
43804;BME280;29430;52.924;-2.388;2023-10-08T20:11:58;99868.19;;;18.12;74.03
43804;BME280;29430;52.924;-2.388;2023-10-08T20:16:50;99884.94;;;18.10;74.49
43804;BME280;29430;52.924;-2.388;2023-10-08T20:21:45;99870.38;;;18.10;74.89
43804;BME280;29430;52.924;-2.388;2023-10-08T20:26:37;99864.34;;;18.07;75.69
43804;BME280;29430;52.924;-2.388;2023-10-08T20:31:29;99861.28;;;18.04;76.48
43804;BME280;29430;52.924;-2.388;2023-10-08T20:36:21;99855.22;;;17.97;76.89
43804;BME280;29430;52.924;-2.388;2023-10-08T20:41:14;99864.25;;;17.92;77.74
43804;BME280;29430;52.924;-2.388;2023-10-08T20:46:06;99867.41;;;17.84;78.15
43804;BME280;29430;52.924;-2.388;2023-10-08T20:50:58;99863.81;;;17.78;78.33
43804;BME280;29430;52.924;-2.388;2023-10-08T20:55:51;99857.75;;;17.76;79.33
43804;BME280;29430;52.924;-2.388;2023-10-08T21:00:44;99859.91;;;17.69;80.24
43804;BME280;29430;52.924;-2.388;2023-10-08T21:05:38;99848.06;;;17.63;80.40
43804;BME280;29430;52.924;-2.388;2023-10-08T21:10:40;99852.38;;;17.59;80.63
43804;BME280;29430;52.924;-2.388;2023-10-08T21:15:37;99848.81;;;17.53;82.21
43804;BME280;29430;52.924;-2.388;2023-10-08T21:20:29;99844.41;;;17.52;82.71
43804;BME280;29430;52.924;-2.388;2023-10-08T21:25:21;99849.25;;;17.45;83.12
43804;BME280;29430;52.924;-2.388;2023-10-08T21:30:14;99835.81;;;17.44;83.41
43804;BME280;29430;52.924;-2.388;2023-10-08T21:35:09;99830.31;;;17.44;83.79
43804;BME280;29430;52.924;-2.388;2023-10-08T21:40:01;99839.31;;;17.39;83.76
43804;BME280;29430;52.924;-2.388;2023-10-08T21:44:56;99876.84;;;17.33;84.17
43804;BME280;29430;52.924;-2.388;2023-10-08T21:49:48;99860.59;;;17.27;84.63
43804;BME280;29430;52.924;-2.388;2023-10-08T21:54:39;99872.84;;;17.19;84.80
43804;BME280;29430;52.924;-2.388;2023-10-08T21:59:31;99885.94;;;17.12;84.72
43804;BME280;29430;52.924;-2.388;2023-10-08T22:04:24;99887.78;;;17.06;85.22
43804;BME280;29430;52.924;-2.388;2023-10-08T22:09:17;99862.75;;;16.97;86.17
43804;BME280;29430;52.924;-2.388;2023-10-08T22:14:09;99855.00;;;16.89;87.00
43804;BME280;29430;52.924;-2.388;2023-10-08T22:19:07;99858.16;;;16.81;87.18
43804;BME280;29430;52.924;-2.388;2023-10-08T22:24:01;99854.25;;;16.77;87.15
43804;BME280;29430;52.924;-2.388;2023-10-08T22:28:54;99839.09;;;16.69;87.42
43804;BME280;29430;52.924;-2.388;2023-10-08T22:33:49;99835.22;;;16.65;87.86
43804;BME280;29430;52.924;-2.388;2023-10-08T22:38:41;99835.72;;;16.62;88.34
43804;BME280;29430;52.924;-2.388;2023-10-08T22:43:34;99831.50;;;16.54;88.58
43804;BME280;29430;52.924;-2.388;2023-10-08T22:48:28;99828.97;;;16.47;89.39
43804;BME280;29430;52.924;-2.388;2023-10-08T22:53:20;99795.97;;;16.37;89.68
43804;BME280;29430;52.924;-2.388;2023-10-08T22:58:15;99780.56;;;16.31;90.25
43804;BME280;29430;52.924;-2.388;2023-10-08T23:03:08;99778.84;;;16.25;90.75
43804;BME280;29430;52.924;-2.388;2023-10-08T23:08:03;99780.47;;;16.21;90.45
43804;BME280;29430;52.924;-2.388;2023-10-08T23:12:55;99776.56;;;16.17;90.49
43804;BME280;29430;52.924;-2.388;2023-10-08T23:17:47;99781.72;;;16.13;90.93
43804;BME280;29430;52.924;-2.388;2023-10-08T23:22:39;99770.44;;;16.09;90.49
43804;BME280;29430;52.924;-2.388;2023-10-08T23:27:32;99776.66;;;16.05;90.43
43804;BME280;29430;52.924;-2.388;2023-10-08T23:32:24;99786.22;;;16.02;90.87
43804;BME280;29430;52.924;-2.388;2023-10-08T23:37:18;99796.56;;;16.00;90.67
43804;BME280;29430;52.924;-2.388;2023-10-08T23:42:13;99811.59;;;15.98;90.76
43804;BME280;29430;52.924;-2.388;2023-10-08T23:47:24;99810.69;;;15.92;90.80
43804;BME280;29430;52.924;-2.388;2023-10-08T23:52:19;99809.53;;;15.88;91.10
43804;BME280;29430;52.924;-2.388;2023-10-08T23:57:15;99811.94;;;15.84;91.28
